Time,TemperatureF,DewpointF,PressureIn,WindDirection,WindDirectionDegrees,WindSpeedMPH,WindSpeedGustMPH,Humidity,HourlyPrecipIn,Conditions,Clouds,dailyrainin,SoftwareType,DateUTC
2013-04-05 00:00:00,31.9,23.2,29.94,SSW,211,0.0,-999.0,70,0.00,,,0.00,Wunderground v.1.15,2013-04-05 04:00:00,
2013-04-05 00:01:00,31.8,23.5,29.94,SSW,211,0.0,-999.0,71,0.00,,,0.00,Wunderground v.1.15,2013-04-05 04:01:00,
2013-04-05 00:02:00,31.8,23.5,29.94,SSW,211,0.0,-999.0,71,0.00,,,0.00,Wunderground v.1.15,2013-04-05 04:02:00,
2013-04-05 00:05:00,31.6,23.3,29.94,SSW,211,0.0,-999.0,71,0.00,,,0.00,Wunderground v.1.15,2013-04-05 04:05:00,
2013-04-05 00:12:00,31.4,23.4,29.94,SSW,211,0.0,-999.0,72,0.00,,,0.00,Wunderground v.1.15,2013-04-05 04:12:00,
2013-04-05 00:17:00,31.2,23.2,29.94,SSW,211,0.0,-999.0,72,0.00,,,0.00,Wunderground v.1.15,2013-04-05 04:17:00,
2013-04-05 00:23:00,30.8,22.8,29.94,SSW,211,0.0,-999.0,72,0.00,,,0.00,Wunderground v.1.15,2013-04-05 04:23:00,
2013-04-05 00:28:00,30.6,22.6,29.93,SSW,211,0.0,-999.0,72,0.00,,,0.00,Wunderground v.1.15,2013-04-05 04:28:00,
2013-04-05 00:34:00,30.2,22.3,29.93,SSW,211,0.0,-999.0,72,0.00,,,0.00,Wunderground v.1.15,2013-04-05 04:34:00,
2013-04-05 00:39:00,30.0,22.1,29.93,SSW,211,0.0,-999.0,72,0.00,,,0.00,Wunderground v.1.15,2013-04-05 04:39:00,
2013-04-05 00:44:00,29.8,22.2,29.93,SSW,211,0.0,-999.0,73,0.00,,,0.00,Wunderground v.1.15,2013-04-05 04:44:00,
2013-04-05 00:49:00,29.6,22.0,29.93,SSW,211,0.0,-999.0,73,0.00,,,0.00,Wunderground v.1.15,2013-04-05 04:49:00,
2013-04-05 00:55:00,29.4,21.8,29.93,SSW,211,0.0,-999.0,73,0.00,,,0.00,Wunderground v.1.15,2013-04-05 04:55:00,
2013-04-05 01:00:00,29.2,21.6,29.93,SSW,211,0.0,-999.0,73,0.00,,,0.00,Wunderground v.1.15,2013-04-05 05:00:00,
2013-04-05 01:06:00,29.0,21.7,29.93,SSW,211,0.0,-999.0,74,0.00,,,0.00,Wunderground v.1.15,2013-04-05 05:06:00,
2013-04-05 01:11:00,28.9,21.7,29.93,SSW,211,0.0,-999.0,74,0.00,,,0.00,Wunderground v.1.15,2013-04-05 05:11:00,
2013-04-05 01:16:00,28.7,21.8,29.93,SSW,211,0.0,-999.0,75,0.00,,,0.00,Wunderground v.1.15,2013-04-05 05:16:00,
2013-04-05 01:22:00,28.5,21.6,29.93,SSW,211,0.0,-999.0,75,0.00,,,0.00,Wunderground v.1.15,2013-04-05 05:22:00,
2013-04-05 01:28:00,28.3,21.4,29.93,SSW,211,0.0,-999.0,75,0.00,,,0.00,Wunderground v.1.15,2013-04-05 05:28:00,
2013-04-05 01:33:00,28.2,21.6,29.93,SSW,211,0.0,-999.0,76,0.00,,,0.00,Wunderground v.1.15,2013-04-05 05:33:00,
2013-04-05 01:39:00,28.1,21.5,29.93,SSW,211,0.0,-999.0,76,0.00,,,0.00,Wunderground v.1.15,2013-04-05 05:39:00,
2013-04-05 01:44:00,28.0,21.7,29.93,SSW,211,0.0,-999.0,77,0.00,,,0.00,Wunderground v.1.15,2013-04-05 05:44:00,
2013-04-05 01:50:00,28.0,21.7,29.93,SSW,211,0.0,-999.0,77,0.00,,,0.00,Wunderground v.1.15,2013-04-05 05:50:00,
2013-04-05 01:56:00,27.9,21.9,29.93,SSW,211,0.0,-999.0,78,0.00,,,0.00,Wunderground v.1.15,2013-04-05 05:56:00,
2013-04-05 02:01:00,27.8,21.8,29.93,SSW,211,0.0,-999.0,78,0.00,,,0.00,Wunderground v.1.15,2013-04-05 06:01:00,
2013-04-05 02:07:00,27.6,21.9,29.93,SSW,211,0.0,-999.0,79,0.00,,,0.00,Wunderground v.1.15,2013-04-05 06:07:00,
2013-04-05 02:12:00,27.5,21.8,29.93,SSW,211,0.0,-999.0,79,0.00,,,0.00,Wunderground v.1.15,2013-04-05 06:12:00,
2013-04-05 02:17:00,27.3,21.6,29.92,SSW,211,0.0,-999.0,79,0.00,,,0.00,Wunderground v.1.15,2013-04-05 06:17:00,
2013-04-05 02:23:00,27.2,21.5,29.93,SSW,211,0.0,-999.0,79,0.00,,,0.00,Wunderground v.1.15,2013-04-05 06:23:00,
2013-04-05 02:28:00,27.0,21.7,29.93,SSW,211,0.0,-999.0,80,0.00,,,0.00,Wunderground v.1.15,2013-04-05 06:28:00,
2013-04-05 02:34:00,26.9,21.6,29.92,SSW,211,0.0,-999.0,80,0.00,,,0.00,Wunderground v.1.15,2013-04-05 06:34:00,
2013-04-05 02:39:00,26.7,21.4,29.92,SSW,211,0.0,-999.0,80,0.00,,,0.00,Wunderground v.1.15,2013-04-05 06:39:00,
2013-04-05 02:44:00,26.6,21.3,29.92,SSW,211,0.0,-999.0,80,0.00,,,0.00,Wunderground v.1.15,2013-04-05 06:44:00,
2013-04-05 02:49:00,26.4,21.1,29.92,SSW,211,0.0,-999.0,80,0.00,,,0.00,Wunderground v.1.15,2013-04-05 06:49:00,
2013-04-05 02:54:00,26.3,21.0,29.92,SSW,211,0.0,-999.0,80,0.00,,,0.00,Wunderground v.1.15,2013-04-05 06:54:00,
2013-04-05 02:59:00,26.1,20.8,29.92,SSW,211,0.0,-999.0,80,0.00,,,0.00,Wunderground v.1.15,2013-04-05 06:59:00,
2013-04-05 03:04:00,26.0,20.7,29.92,SSW,211,0.0,-999.0,80,0.00,,,0.00,Wunderground v.1.15,2013-04-05 07:04:00,
2013-04-05 03:10:00,25.9,20.6,29.91,SSW,211,0.0,-999.0,80,0.00,,,0.00,Wunderground v.1.15,2013-04-05 07:10:00,
2013-04-05 03:15:00,25.8,20.5,29.91,SSW,211,0.0,-999.0,80,0.00,,,0.00,Wunderground v.1.15,2013-04-05 07:15:00,
2013-04-05 03:20:00,25.6,20.3,29.91,SSW,211,0.0,-999.0,80,0.00,,,0.00,Wunderground v.1.15,2013-04-05 07:20:00,
2013-04-05 03:25:00,25.5,20.2,29.91,SSW,211,0.0,-999.0,80,0.00,,,0.00,Wunderground v.1.15,2013-04-05 07:25:00,
2013-04-05 03:31:00,25.4,20.4,29.91,SSW,211,0.0,-999.0,81,0.00,,,0.00,Wunderground v.1.15,2013-04-05 07:31:00,
2013-04-05 03:36:00,25.2,19.9,29.91,SSW,211,0.0,-999.0,80,0.00,,,0.00,Wunderground v.1.15,2013-04-05 07:36:00,
2013-04-05 03:41:00,24.9,19.9,29.91,SSW,211,0.0,-999.0,81,0.00,,,0.00,Wunderground v.1.15,2013-04-05 07:41:00,
2013-04-05 03:47:00,24.8,19.8,29.91,SSW,211,0.0,-999.0,81,0.00,,,0.00,Wunderground v.1.15,2013-04-05 07:47:00,
2013-04-05 03:52:00,24.7,20.0,29.91,SSW,211,0.0,-999.0,82,0.00,,,0.00,Wunderground v.1.15,2013-04-05 07:52:00,
2013-04-05 03:58:00,24.6,19.9,29.91,SSW,211,0.0,-999.0,82,0.00,,,0.00,Wunderground v.1.15,2013-04-05 07:58:00,
2013-04-05 04:04:00,24.6,20.2,29.91,SSW,211,0.0,-999.0,83,0.00,,,0.00,Wunderground v.1.15,2013-04-05 08:04:00,
2013-04-05 04:09:00,24.6,19.9,29.91,SSW,211,0.0,-999.0,82,0.00,,,0.00,Wunderground v.1.15,2013-04-05 08:09:00,
2013-04-05 04:15:00,24.7,20.3,29.91,SSW,211,0.0,-999.0,83,0.00,,,0.00,Wunderground v.1.15,2013-04-05 08:15:00,
2013-04-05 04:21:00,24.6,20.2,29.91,SSW,211,0.0,-999.0,83,0.00,,,0.00,Wunderground v.1.15,2013-04-05 08:21:00,
2013-04-05 04:26:00,24.7,20.3,29.91,SSW,211,0.0,-999.0,83,0.00,,,0.00,Wunderground v.1.15,2013-04-05 08:26:00,
2013-04-05 04:31:00,24.6,20.2,29.91,SSW,211,0.0,-999.0,83,0.00,,,0.00,Wunderground v.1.15,2013-04-05 08:31:00,
2013-04-05 04:37:00,24.5,20.1,29.91,SSW,211,0.0,-999.0,83,0.00,,,0.00,Wunderground v.1.15,2013-04-05 08:37:00,
2013-04-05 04:42:00,24.4,20.0,29.91,SSW,211,0.0,-999.0,83,0.00,,,0.00,Wunderground v.1.15,2013-04-05 08:42:00,
2013-04-05 04:47:00,24.3,19.9,29.91,SSW,211,0.0,-999.0,83,0.00,,,0.00,Wunderground v.1.15,2013-04-05 08:47:00,
2013-04-05 04:53:00,24.2,19.8,29.92,SSW,211,0.0,-999.0,83,0.00,,,0.00,Wunderground v.1.15,2013-04-05 08:53:00,
2013-04-05 04:58:00,24.1,19.7,29.92,SSW,211,0.0,-999.0,83,0.00,,,0.00,Wunderground v.1.15,2013-04-05 08:58:00,
2013-04-05 05:04:00,24.0,19.6,29.92,SSW,211,0.0,-999.0,83,0.00,,,0.00,Wunderground v.1.15,2013-04-05 09:04:00,
2013-04-05 05:09:00,23.9,19.8,29.92,SSW,211,0.0,-999.0,84,0.00,,,0.00,Wunderground v.1.15,2013-04-05 09:09:00,
2013-04-05 05:14:00,23.8,19.7,29.92,SSW,211,0.0,-999.0,84,0.00,,,0.00,Wunderground v.1.15,2013-04-05 09:14:00,
2013-04-05 05:19:00,23.6,19.5,29.92,SSW,211,0.0,-999.0,84,0.00,,,0.00,Wunderground v.1.15,2013-04-05 09:19:00,
2013-04-05 05:25:00,23.6,19.5,29.92,SSW,211,0.0,-999.0,84,0.00,,,0.00,Wunderground v.1.15,2013-04-05 09:25:00,
2013-04-05 05:31:00,23.7,19.9,29.92,SSW,211,0.0,-999.0,85,0.00,,,0.00,Wunderground v.1.15,2013-04-05 09:31:00,
2013-04-05 05:36:00,23.6,19.5,29.92,SSW,211,0.0,-999.0,84,0.00,,,0.00,Wunderground v.1.15,2013-04-05 09:36:00,
2013-04-05 05:41:00,23.6,19.5,29.92,SSW,211,0.0,-999.0,84,0.00,,,0.00,Wunderground v.1.15,2013-04-05 09:41:00,
2013-04-05 05:47:00,23.6,19.5,29.92,SSW,211,0.0,-999.0,84,0.00,,,0.00,Wunderground v.1.15,2013-04-05 09:47:00,
2013-04-05 05:52:00,23.6,19.8,29.93,SSW,211,0.0,-999.0,85,0.00,,,0.00,Wunderground v.1.15,2013-04-05 09:52:00,
2013-04-05 05:57:00,23.5,19.7,29.93,SSW,211,0.0,-999.0,85,0.00,,,0.00,Wunderground v.1.15,2013-04-05 09:57:00,
2013-04-05 06:02:00,23.4,19.3,29.93,SSW,211,0.0,-999.0,84,0.00,,,0.00,Wunderground v.1.15,2013-04-05 10:02:00,
2013-04-05 06:08:00,23.2,19.1,29.93,SSW,211,0.0,-999.0,84,0.00,,,0.00,Wunderground v.1.15,2013-04-05 10:08:00,
2013-04-05 06:13:00,23.0,19.2,29.93,SSW,211,0.0,-999.0,85,0.00,,,0.00,Wunderground v.1.15,2013-04-05 10:13:00,
2013-04-05 06:18:00,23.1,19.5,29.93,SSW,211,0.0,-999.0,86,0.00,,,0.00,Wunderground v.1.15,2013-04-05 10:18:00,
2013-04-05 06:24:00,23.4,19.8,29.94,SSW,211,0.0,-999.0,86,0.00,,,0.00,Wunderground v.1.15,2013-04-05 10:24:00,
2013-04-05 06:30:00,23.5,19.9,29.94,SSW,211,0.0,-999.0,86,0.00,,,0.00,Wunderground v.1.15,2013-04-05 10:30:00,
2013-04-05 06:35:00,23.6,20.0,29.94,SSW,211,0.0,-999.0,86,0.00,,,0.00,Wunderground v.1.15,2013-04-05 10:35:00,
2013-04-05 06:41:00,23.7,20.1,29.94,SSW,211,0.0,-999.0,86,0.00,,,0.00,Wunderground v.1.15,2013-04-05 10:41:00,
2013-04-05 06:47:00,23.8,20.2,29.94,SSW,211,0.0,-999.0,86,0.00,,,0.00,Wunderground v.1.15,2013-04-05 10:47:00,
2013-04-05 06:52:00,23.7,20.1,29.94,SSW,211,0.0,-999.0,86,0.00,,,0.00,Wunderground v.1.15,2013-04-05 10:52:00,
2013-04-05 06:58:00,23.6,19.8,29.94,SSW,211,0.0,-999.0,85,0.00,,,0.00,Wunderground v.1.15,2013-04-05 10:58:00,
2013-04-05 07:03:00,23.6,19.8,29.94,SSW,211,0.0,-999.0,85,0.00,,,0.00,Wunderground v.1.15,2013-04-05 11:03:00,
2013-04-05 07:08:00,23.6,20.0,29.95,SSW,211,0.0,-999.0,86,0.00,,,0.00,Wunderground v.1.15,2013-04-05 11:08:00,
2013-04-05 07:14:00,23.6,20.0,29.95,SSW,211,0.0,-999.0,86,0.00,,,0.00,Wunderground v.1.15,2013-04-05 11:14:00,
2013-04-05 07:19:00,23.7,20.1,29.96,SSW,211,0.0,-999.0,86,0.00,,,0.00,Wunderground v.1.15,2013-04-05 11:19:00,
2013-04-05 07:25:00,23.8,20.2,29.96,SSW,211,0.0,-999.0,86,0.00,,,0.00,Wunderground v.1.15,2013-04-05 11:25:00,
2013-04-05 07:30:00,24.0,20.4,29.96,SSW,211,0.0,-999.0,86,0.00,,,0.00,Wunderground v.1.15,2013-04-05 11:30:00,
2013-04-05 07:36:00,24.1,20.5,29.96,SSW,211,0.0,-999.0,86,0.00,,,0.00,Wunderground v.1.15,2013-04-05 11:36:00,
2013-04-05 07:42:00,24.4,21.1,29.97,SSW,211,0.0,-999.0,87,0.00,,,0.00,Wunderground v.1.15,2013-04-05 11:42:00,
2013-04-05 07:48:00,24.7,21.4,29.97,SSW,211,0.0,-999.0,87,0.00,,,0.00,Wunderground v.1.15,2013-04-05 11:48:00,
2013-04-05 07:54:00,25.1,21.8,29.97,SSW,211,0.0,-999.0,87,0.00,,,0.00,Wunderground v.1.15,2013-04-05 11:54:00,
2013-04-05 07:59:00,25.4,22.1,29.97,SSW,211,0.0,-999.0,87,0.00,,,0.00,Wunderground v.1.15,2013-04-05 11:59:00,
2013-04-05 08:04:00,25.9,22.6,29.97,SSW,211,0.0,-999.0,87,0.00,,,0.00,Wunderground v.1.15,2013-04-05 12:04:00,
2013-04-05 08:09:00,26.6,23.3,29.98,SSW,211,0.0,-999.0,87,0.00,,,0.00,Wunderground v.1.15,2013-04-05 12:09:00,
2013-04-05 08:15:00,27.4,24.0,29.98,SSW,211,0.0,-999.0,87,0.00,,,0.00,Wunderground v.1.15,2013-04-05 12:15:00,
2013-04-05 08:21:00,27.9,24.5,29.98,SSW,211,0.0,-999.0,87,0.00,,,0.00,Wunderground v.1.15,2013-04-05 12:21:00,
2013-04-05 08:27:00,28.4,24.7,29.98,SSW,211,0.0,-999.0,86,0.00,,,0.00,Wunderground v.1.15,2013-04-05 12:27:00,
2013-04-05 08:32:00,29.2,25.5,29.98,SSW,211,0.0,-999.0,86,0.00,,,0.00,Wunderground v.1.15,2013-04-05 12:32:00,
2013-04-05 08:37:00,29.7,25.7,29.98,SSW,211,0.0,-999.0,85,0.00,,,0.00,Wunderground v.1.15,2013-04-05 12:37:00,
2013-04-05 08:44:00,30.4,26.4,29.98,SSW,211,0.0,-999.0,85,0.00,,,0.00,Wunderground v.1.15,2013-04-05 12:44:00,
2013-04-05 08:50:00,30.9,26.6,29.98,SSW,211,0.0,-999.0,84,0.00,,,0.00,Wunderground v.1.15,2013-04-05 12:50:00,
2013-04-05 08:55:00,31.3,26.7,29.99,SSW,211,0.0,-999.0,83,0.00,,,0.00,Wunderground v.1.15,2013-04-05 12:55:00,
2013-04-05 09:02:00,31.8,27.2,29.98,SSW,211,0.0,-999.0,83,0.00,,,0.00,Wunderground v.1.15,2013-04-05 13:02:00,
2013-04-05 09:08:00,32.4,27.8,29.98,SSW,211,0.0,-999.0,83,0.00,,,0.00,Wunderground v.1.15,2013-04-05 13:08:00,
2013-04-05 09:13:00,33.2,28.3,29.98,SSW,211,0.0,-999.0,82,0.00,,,0.00,Wunderground v.1.15,2013-04-05 13:13:00,
2013-04-05 09:18:00,34.0,28.8,29.98,SSW,211,0.0,-999.0,81,0.00,,,0.00,Wunderground v.1.15,2013-04-05 13:18:00,
2013-04-05 09:24:00,35.2,29.3,29.99,SSW,211,0.0,-999.0,79,0.00,,,0.00,Wunderground v.1.15,2013-04-05 13:24:00,
2013-04-05 09:29:00,36.1,29.6,29.99,SSW,211,0.0,-999.0,77,0.00,,,0.00,Wunderground v.1.15,2013-04-05 13:29:00,
2013-04-05 09:34:00,37.4,29.5,29.98,SSW,211,1.0,-999.0,73,0.00,,,0.00,Wunderground v.1.15,2013-04-05 13:34:00,
2013-04-05 09:40:00,38.5,29.9,29.98,SSW,211,1.0,-999.0,71,0.00,,,0.00,Wunderground v.1.15,2013-04-05 13:40:00,
2013-04-05 09:44:00,39.4,29.7,29.98,ENE,75,1.0,-999.0,68,0.00,,,0.00,Wunderground v.1.15,2013-04-05 13:44:00,
2013-04-05 09:50:00,40.4,29.2,29.98,ENE,75,1.0,-999.0,64,0.00,,,0.00,Wunderground v.1.15,2013-04-05 13:50:00,
2013-04-05 09:56:00,41.4,29.3,29.98,ENE,75,1.0,-999.0,62,0.00,,,0.00,Wunderground v.1.15,2013-04-05 13:56:00,
2013-04-05 10:01:00,42.3,29.8,29.98,ENE,75,1.0,-999.0,61,0.00,,,0.00,Wunderground v.1.15,2013-04-05 14:01:00,
2013-04-05 10:07:00,42.9,30.0,29.98,ENE,75,1.0,-999.0,60,0.00,,,0.00,Wunderground v.1.15,2013-04-05 14:07:00,
2013-04-05 10:14:00,44.0,31.4,29.98,NE,47,1.0,-999.0,61,0.00,,,0.00,Wunderground v.1.15,2013-04-05 14:14:00,
2013-04-05 10:19:00,45.1,32.4,29.98,NE,46,1.0,-999.0,61,0.00,,,0.00,Wunderground v.1.15,2013-04-05 14:19:00,
2013-04-05 10:25:00,46.3,33.6,29.98,NNE,19,1.0,-999.0,61,0.00,,,0.00,Wunderground v.1.15,2013-04-05 14:25:00,
2013-04-05 10:30:00,47.3,32.8,29.98,NNE,19,2.0,-999.0,57,0.00,,,0.00,Wunderground v.1.15,2013-04-05 14:30:00,
2013-04-05 10:36:00,47.9,33.4,29.98,ENE,71,2.0,-999.0,57,0.00,,,0.00,Wunderground v.1.15,2013-04-05 14:36:00,
2013-04-05 10:42:00,48.2,34.1,29.98,NNE,22,3.0,-999.0,58,0.00,,,0.00,Wunderground v.1.15,2013-04-05 14:42:00,
2013-04-05 10:48:00,48.7,34.6,29.98,NNE,19,4.0,-999.0,58,0.00,,,0.00,Wunderground v.1.15,2013-04-05 14:48:00,
2013-04-05 10:54:00,49.1,34.1,29.99,NE,42,4.0,-999.0,56,0.00,,,0.00,Wunderground v.1.15,2013-04-05 14:54:00,
2013-04-05 10:59:00,49.3,33.8,29.99,NNE,25,4.0,-999.0,55,0.00,,,0.00,Wunderground v.1.15,2013-04-05 14:59:00,
2013-04-05 11:04:00,49.2,33.7,29.99,NNE,19,4.0,-999.0,55,0.00,,,0.00,Wunderground v.1.15,2013-04-05 15:04:00,
2013-04-05 11:09:00,49.2,33.3,29.99,NNE,28,4.0,-999.0,54,0.00,,,0.00,Wunderground v.1.15,2013-04-05 15:09:00,
2013-04-05 11:15:00,49.3,33.3,29.99,NNE,26,6.0,-999.0,54,0.00,,,0.00,Wunderground v.1.15,2013-04-05 15:15:00,
2013-04-05 11:21:00,49.5,33.5,29.99,NNE,23,5.0,-999.0,54,0.00,,,0.00,Wunderground v.1.15,2013-04-05 15:21:00,
2013-04-05 11:27:00,49.8,33.8,29.99,NNE,28,5.0,-999.0,54,0.00,,,0.00,Wunderground v.1.15,2013-04-05 15:27:00,
2013-04-05 11:32:00,50.1,34.1,29.99,ENE,57,5.0,-999.0,54,0.00,,,0.00,Wunderground v.1.15,2013-04-05 15:32:00,
2013-04-05 11:37:00,50.5,34.0,29.99,North,9,5.0,-999.0,53,0.00,,,0.00,Wunderground v.1.15,2013-04-05 15:37:00,
2013-04-05 11:42:00,50.7,34.2,29.99,NNE,24,4.0,-999.0,53,0.00,,,0.00,Wunderground v.1.15,2013-04-05 15:42:00,
2013-04-05 11:48:00,50.5,34.0,29.99,NNE,19,4.0,-999.0,53,0.00,,,0.00,Wunderground v.1.15,2013-04-05 15:48:00,
2013-04-05 11:54:00,51.2,34.2,29.99,NE,40,4.0,-999.0,52,0.00,,,0.00,Wunderground v.1.15,2013-04-05 15:54:00,
2013-04-05 11:59:00,51.3,33.8,29.98,NW,321,4.0,-999.0,51,0.00,,,0.00,Wunderground v.1.15,2013-04-05 15:59:00,
2013-04-05 12:04:00,52.1,34.0,29.98,NNE,26,3.0,-999.0,50,0.00,,,0.00,Wunderground v.1.15,2013-04-05 16:04:00,
2013-04-05 12:09:00,51.8,34.7,29.99,NE,38,3.0,-999.0,52,0.00,,,0.00,Wunderground v.1.15,2013-04-05 16:09:00,
2013-04-05 12:15:00,52.0,34.4,29.98,NNE,19,4.0,-999.0,51,0.00,,,0.00,Wunderground v.1.15,2013-04-05 16:15:00,
2013-04-05 12:20:00,51.9,33.8,29.98,North,5,5.0,-999.0,50,0.00,,,0.00,Wunderground v.1.15,2013-04-05 16:20:00,
2013-04-05 12:26:00,52.3,34.2,29.98,NNE,33,4.0,-999.0,50,0.00,,,0.00,Wunderground v.1.15,2013-04-05 16:26:00,
2013-04-05 12:32:00,52.6,35.5,29.98,NNE,15,3.0,-999.0,52,0.00,,,0.00,Wunderground v.1.15,2013-04-05 16:32:00,
2013-04-05 12:39:00,52.9,34.2,29.98,ENE,57,4.0,-999.0,49,0.00,,,0.00,Wunderground v.1.15,2013-04-05 16:39:00,
2013-04-05 12:44:00,52.6,35.0,29.98,North,355,4.0,-999.0,51,0.00,,,0.00,Wunderground v.1.15,2013-04-05 16:44:00,
2013-04-05 12:49:00,52.6,35.0,29.98,NNE,25,4.0,-999.0,51,0.00,,,0.00,Wunderground v.1.15,2013-04-05 16:49:00,
2013-04-05 12:54:00,52.6,35.0,29.99,NNE,24,5.0,-999.0,51,0.00,,,0.00,Wunderground v.1.15,2013-04-05 16:54:00,
2013-04-05 13:00:00,53.8,35.1,29.99,NNE,28,3.0,-999.0,49,0.00,,,0.00,Wunderground v.1.15,2013-04-05 17:00:00,
2013-04-05 13:06:00,53.3,34.6,29.99,NNE,28,5.0,-999.0,49,0.00,,,0.00,Wunderground v.1.15,2013-04-05 17:06:00,
2013-04-05 13:12:00,53.2,35.5,29.98,NNE,15,4.0,-999.0,51,0.00,,,0.00,Wunderground v.1.15,2013-04-05 17:12:00,
2013-04-05 13:17:00,53.7,36.0,29.98,NNE,13,3.0,-999.0,51,0.00,,,0.00,Wunderground v.1.15,2013-04-05 17:17:00,
2013-04-05 13:23:00,54.5,36.2,29.98,NNE,19,4.0,-999.0,50,0.00,,,0.00,Wunderground v.1.15,2013-04-05 17:23:00,
2013-04-05 13:29:00,53.6,34.9,29.99,NNE,24,5.0,-999.0,49,0.00,,,0.00,Wunderground v.1.15,2013-04-05 17:29:00,
2013-04-05 13:35:00,53.6,35.4,29.98,NNE,20,5.0,-999.0,50,0.00,,,0.00,Wunderground v.1.15,2013-04-05 17:35:00,
2013-04-05 13:40:00,54.4,37.1,29.98,North,9,4.0,-999.0,52,0.00,,,0.00,Wunderground v.1.15,2013-04-05 17:40:00,
2013-04-05 13:45:00,53.7,35.5,29.98,NNE,15,6.0,-999.0,50,0.00,,,0.00,Wunderground v.1.15,2013-04-05 17:45:00,
2013-04-05 13:51:00,53.5,33.7,29.99,WNW,302,3.0,-999.0,47,0.00,,,0.00,Wunderground v.1.15,2013-04-05 17:51:00,
2013-04-05 13:57:00,53.6,35.9,29.99,NNE,15,3.0,-999.0,51,0.00,,,0.00,Wunderground v.1.15,2013-04-05 17:57:00,
2013-04-05 14:02:00,53.2,34.0,29.98,NE,41,6.0,-999.0,48,0.00,,,0.00,Wunderground v.1.15,2013-04-05 18:02:00,
2013-04-05 14:09:00,52.6,35.5,29.98,North,9,7.0,-999.0,52,0.00,,,0.00,Wunderground v.1.15,2013-04-05 18:09:00,
2013-04-05 14:14:00,52.8,33.6,29.99,NNE,19,8.0,-999.0,48,0.00,,,0.00,Wunderground v.1.15,2013-04-05 18:14:00,
2013-04-05 14:19:00,53.3,34.6,29.98,NNE,28,7.0,-999.0,49,0.00,,,0.00,Wunderground v.1.15,2013-04-05 18:19:00,
2013-04-05 14:24:00,53.6,34.9,29.98,ENE,74,4.0,-999.0,49,0.00,,,0.00,Wunderground v.1.15,2013-04-05 18:24:00,
2013-04-05 14:30:00,54.4,33.5,29.98,NNW,328,5.0,-999.0,45,0.00,,,0.00,Wunderground v.1.15,2013-04-05 18:30:00,
2013-04-05 14:35:00,54.8,33.8,29.98,North,5,6.0,-999.0,45,0.00,,,0.00,Wunderground v.1.15,2013-04-05 18:35:00,
2013-04-05 14:40:00,55.1,33.0,29.98,North,5,4.0,-999.0,43,0.00,,,0.00,Wunderground v.1.15,2013-04-05 18:40:00,
2013-04-05 14:46:00,55.1,30.6,29.98,ESE,102,4.0,-999.0,39,0.00,,,0.00,Wunderground v.1.15,2013-04-05 18:46:00,
2013-04-05 14:52:00,54.6,31.3,29.98,ENE,64,4.0,-999.0,41,0.00,,,0.00,Wunderground v.1.15,2013-04-05 18:52:00,
2013-04-05 14:57:00,54.9,30.4,29.98,NE,38,4.0,-999.0,39,0.00,,,0.00,Wunderground v.1.15,2013-04-05 18:57:00,
2013-04-05 15:03:00,54.8,30.9,29.98,NNE,13,4.0,-999.0,40,0.00,,,0.00,Wunderground v.1.15,2013-04-05 19:03:00,
2013-04-05 15:08:00,54.2,32.2,29.98,North,355,5.0,-999.0,43,0.00,,,0.00,Wunderground v.1.15,2013-04-05 19:08:00,
2013-04-05 15:13:00,54.1,31.5,29.99,NNE,23,6.0,-999.0,42,0.00,,,0.00,Wunderground v.1.15,2013-04-05 19:13:00,
2013-04-05 15:17:00,54.1,32.6,29.98,NNE,19,5.0,-999.0,44,0.00,,,0.00,Wunderground v.1.15,2013-04-05 19:17:00,
2013-04-05 15:23:00,53.4,32.6,29.98,North,5,6.0,-999.0,45,0.00,,,0.00,Wunderground v.1.15,2013-04-05 19:23:00,
2013-04-05 15:29:00,53.5,32.1,29.99,NNE,22,6.0,-999.0,44,0.00,,,0.00,Wunderground v.1.15,2013-04-05 19:29:00,
2013-04-05 15:34:00,53.3,30.8,29.99,NNE,22,6.0,-999.0,42,0.00,,,0.00,Wunderground v.1.15,2013-04-05 19:34:00,
2013-04-05 15:39:00,53.1,32.3,29.99,NNE,22,6.0,-999.0,45,0.00,,,0.00,Wunderground v.1.15,2013-04-05 19:39:00,
2013-04-05 15:45:00,53.7,31.1,29.99,NE,55,4.0,-999.0,42,0.00,,,0.00,Wunderground v.1.15,2013-04-05 19:45:00,
2013-04-05 15:50:00,53.8,31.8,29.99,NNE,30,3.0,-999.0,43,0.00,,,0.00,Wunderground v.1.15,2013-04-05 19:50:00,
2013-04-05 15:56:00,53.1,30.6,30.00,NNW,346,5.0,-999.0,42,0.00,,,0.00,Wunderground v.1.15,2013-04-05 19:56:00,
2013-04-05 16:01:00,53.3,31.9,29.99,North,5,4.0,-999.0,44,0.00,,,0.00,Wunderground v.1.15,2013-04-05 20:01:00,
2013-04-05 16:08:00,53.5,31.0,30.00,NNE,26,3.0,-999.0,42,0.00,,,0.00,Wunderground v.1.15,2013-04-05 20:08:00,
2013-04-05 16:14:00,52.6,30.7,29.99,NNE,13,5.0,-999.0,43,0.00,,,0.00,Wunderground v.1.15,2013-04-05 20:14:00,
2013-04-05 16:19:00,52.2,28.6,30.00,North,5,6.0,-999.0,40,0.00,,,0.00,Wunderground v.1.15,2013-04-05 20:19:00,
2013-04-05 16:25:00,51.7,29.9,30.00,NNE,29,7.0,-999.0,43,0.00,,,0.00,Wunderground v.1.15,2013-04-05 20:25:00,
2013-04-05 16:30:00,51.7,28.1,30.00,NNE,13,6.0,-999.0,40,0.00,,,0.00,Wunderground v.1.15,2013-04-05 20:30:00,
2013-04-05 16:36:00,51.4,29.1,30.00,North,355,6.0,-999.0,42,0.00,,,0.00,Wunderground v.1.15,2013-04-05 20:36:00,
2013-04-05 16:41:00,51.4,29.1,30.00,NNW,343,5.0,-999.0,42,0.00,,,0.00,Wunderground v.1.15,2013-04-05 20:41:00,
2013-04-05 16:47:00,51.4,29.6,30.00,NE,50,6.0,-999.0,43,0.00,,,0.00,Wunderground v.1.15,2013-04-05 20:47:00,
2013-04-05 16:54:00,50.9,29.2,30.00,NNE,28,6.0,-999.0,43,0.00,,,0.00,Wunderground v.1.15,2013-04-05 20:54:00,
2013-04-05 16:59:00,51.1,28.2,30.00,NNE,19,4.0,-999.0,41,0.00,,,0.00,Wunderground v.1.15,2013-04-05 20:59:00,
2013-04-05 17:05:00,51.1,28.8,30.00,SE,126,4.0,-999.0,42,0.00,,,0.00,Wunderground v.1.15,2013-04-05 21:05:00,
2013-04-05 17:10:00,51.2,27.7,30.00,NNE,23,4.0,-999.0,40,0.00,,,0.00,Wunderground v.1.15,2013-04-05 21:10:00,
2013-04-05 17:15:00,50.8,27.9,30.00,NNE,27,4.0,-999.0,41,0.00,,,0.00,Wunderground v.1.15,2013-04-05 21:15:00,
2013-04-05 17:21:00,50.4,28.1,30.00,North,355,4.0,-999.0,42,0.00,,,0.00,Wunderground v.1.15,2013-04-05 21:21:00,
2013-04-05 17:26:00,50.7,29.0,30.01,NW,309,4.0,-999.0,43,0.00,,,0.00,Wunderground v.1.15,2013-04-05 21:26:00,
2013-04-05 17:32:00,51.1,27.6,30.01,WNW,294,2.0,-999.0,40,0.00,,,0.00,Wunderground v.1.15,2013-04-05 21:32:00,
2013-04-05 17:38:00,50.8,26.7,30.02,NE,44,3.0,-999.0,39,0.00,,,0.00,Wunderground v.1.15,2013-04-05 21:38:00,
2013-04-05 17:43:00,50.7,27.2,30.02,NNE,26,3.0,-999.0,40,0.00,,,0.00,Wunderground v.1.15,2013-04-05 21:43:00,
2013-04-05 17:49:00,50.6,27.1,30.02,NNW,342,2.0,-999.0,40,0.00,,,0.00,Wunderground v.1.15,2013-04-05 21:49:00,
2013-04-05 17:55:00,50.3,27.5,30.02,North,355,2.0,-999.0,41,0.00,,,0.00,Wunderground v.1.15,2013-04-05 21:55:00,
2013-04-05 18:00:00,49.7,26.9,30.02,NNE,30,3.0,-999.0,41,0.00,,,0.00,Wunderground v.1.15,2013-04-05 22:00:00,
2013-04-05 18:06:00,49.0,25.7,30.02,NNW,345,5.0,-999.0,40,0.00,,,0.00,Wunderground v.1.15,2013-04-05 22:06:00,
2013-04-05 18:11:00,49.1,26.4,30.03,North,5,3.0,-999.0,41,0.00,,,0.00,Wunderground v.1.15,2013-04-05 22:11:00,
2013-04-05 18:16:00,49.1,27.0,30.03,NNE,33,2.0,-999.0,42,0.00,,,0.00,Wunderground v.1.15,2013-04-05 22:16:00,
2013-04-05 18:21:00,48.7,26.0,30.03,SE,135,3.0,-999.0,41,0.00,,,0.00,Wunderground v.1.15,2013-04-05 22:21:00,
2013-04-05 18:27:00,47.6,25.0,30.03,NNE,18,4.0,-999.0,41,0.00,,,0.00,Wunderground v.1.15,2013-04-05 22:27:00,
2013-04-05 18:33:00,47.1,25.2,30.04,NE,42,5.0,-999.0,42,0.00,,,0.00,Wunderground v.1.15,2013-04-05 22:33:00,
2013-04-05 18:39:00,46.9,25.0,30.04,NNE,17,5.0,-999.0,42,0.00,,,0.00,Wunderground v.1.15,2013-04-05 22:39:00,
2013-04-05 18:45:00,46.5,24.6,30.04,NNE,19,5.0,-999.0,42,0.00,,,0.00,Wunderground v.1.15,2013-04-05 22:45:00,
2013-04-05 18:50:00,46.2,22.6,30.04,NE,35,5.0,-999.0,39,0.00,,,0.00,Wunderground v.1.15,2013-04-05 22:50:00,
2013-04-05 18:57:00,45.6,20.8,30.05,NNE,26,5.0,-999.0,37,0.00,,,0.00,Wunderground v.1.15,2013-04-05 22:57:00,
2013-04-05 19:02:00,45.1,19.0,30.05,NNE,24,7.0,-999.0,35,0.00,,,0.00,Wunderground v.1.15,2013-04-05 23:02:00,
2013-04-05 19:08:00,44.7,20.0,30.05,NNE,17,6.0,-999.0,37,0.00,,,0.00,Wunderground v.1.15,2013-04-05 23:08:00,
2013-04-05 19:13:00,44.5,21.0,30.05,NNE,22,4.0,-999.0,39,0.00,,,0.00,Wunderground v.1.15,2013-04-05 23:13:00,
2013-04-05 19:19:00,44.2,22.0,30.06,NNE,15,4.0,-999.0,41,0.00,,,0.00,Wunderground v.1.15,2013-04-05 23:19:00,
2013-04-05 19:24:00,43.7,21.5,30.06,NNE,21,3.0,-999.0,41,0.00,,,0.00,Wunderground v.1.15,2013-04-05 23:24:00,
2013-04-05 19:30:00,43.2,21.1,30.06,NNE,26,3.0,-999.0,41,0.00,,,0.00,Wunderground v.1.15,2013-04-05 23:30:00,
2013-04-05 19:36:00,42.8,21.3,30.07,NNE,24,3.0,-999.0,42,0.00,,,0.00,Wunderground v.1.15,2013-04-05 23:36:00,
2013-04-05 19:41:00,42.4,20.9,30.07,NNE,13,3.0,-999.0,42,0.00,,,0.00,Wunderground v.1.15,2013-04-05 23:41:00,
2013-04-05 19:47:00,42.0,21.1,30.07,NNE,12,5.0,-999.0,43,0.00,,,0.00,Wunderground v.1.15,2013-04-05 23:47:00,
2013-04-05 19:52:00,41.5,21.2,30.07,NNE,31,5.0,-999.0,44,0.00,,,0.00,Wunderground v.1.15,2013-04-05 23:52:00,
2013-04-05 19:58:00,41.3,21.0,30.08,North,360,6.0,-999.0,44,0.00,,,0.00,Wunderground v.1.15,2013-04-05 23:58:00,
2013-04-05 20:03:00,41.0,21.3,30.08,NNE,19,6.0,-999.0,45,0.00,,,0.00,Wunderground v.1.15,2013-04-06 00:03:00,
2013-04-05 20:09:00,40.5,20.8,30.08,NNE,26,5.0,-999.0,45,0.00,,,0.00,Wunderground v.1.15,2013-04-06 00:09:00,
2013-04-05 20:15:00,40.2,21.0,30.08,NNE,24,3.0,-999.0,46,0.00,,,0.00,Wunderground v.1.15,2013-04-06 00:15:00,
2013-04-05 20:20:00,40.0,20.9,30.08,NNE,28,2.0,-999.0,46,0.00,,,0.00,Wunderground v.1.15,2013-04-06 00:20:00,
2013-04-05 20:25:00,39.7,21.1,30.08,NNE,26,2.0,-999.0,47,0.00,,,0.00,Wunderground v.1.15,2013-04-06 00:25:00,
2013-04-05 20:32:00,39.3,21.2,30.09,NNE,30,1.0,-999.0,48,0.00,,,0.00,Wunderground v.1.15,2013-04-06 00:32:00,
2013-04-05 20:38:00,39.3,21.7,30.09,NNE,28,2.0,-999.0,49,0.00,,,0.00,Wunderground v.1.15,2013-04-06 00:38:00,
2013-04-05 20:44:00,39.2,22.1,30.10,NNE,19,3.0,-999.0,50,0.00,,,0.00,Wunderground v.1.15,2013-04-06 00:44:00,
2013-04-05 20:49:00,39.1,22.5,30.10,NE,36,3.0,-999.0,51,0.00,,,0.00,Wunderground v.1.15,2013-04-06 00:49:00,
2013-04-05 20:56:00,38.7,22.1,30.10,NE,36,2.0,-999.0,51,0.00,,,0.00,Wunderground v.1.15,2013-04-06 00:56:00,
2013-04-05 21:02:00,38.2,22.1,30.10,NNE,22,1.0,-999.0,52,0.00,,,0.00,Wunderground v.1.15,2013-04-06 01:02:00,
2013-04-05 21:08:00,37.8,22.2,30.10,NNE,22,0.0,-999.0,53,0.00,,,0.00,Wunderground v.1.15,2013-04-06 01:08:00,
2013-04-05 21:14:00,37.5,21.9,30.11,NNE,22,0.0,-999.0,53,0.00,,,0.00,Wunderground v.1.15,2013-04-06 01:14:00,
2013-04-05 21:20:00,37.3,22.2,30.11,NNE,22,0.0,-999.0,54,0.00,,,0.00,Wunderground v.1.15,2013-04-06 01:20:00,
2013-04-05 21:25:00,37.0,22.3,30.12,NNE,22,0.0,-999.0,55,0.00,,,0.00,Wunderground v.1.15,2013-04-06 01:25:00,
2013-04-05 21:31:00,36.7,22.5,30.12,NNE,22,0.0,-999.0,56,0.00,,,0.00,Wunderground v.1.15,2013-04-06 01:31:00,
2013-04-05 21:37:00,36.3,22.1,30.12,NNE,22,0.0,-999.0,56,0.00,,,0.00,Wunderground v.1.15,2013-04-06 01:37:00,
2013-04-05 21:42:00,35.5,21.8,30.13,NNE,22,0.0,-999.0,57,0.00,,,0.00,Wunderground v.1.15,2013-04-06 01:42:00,
2013-04-05 21:48:00,35.1,21.8,30.13,NNE,22,0.0,-999.0,58,0.00,,,0.00,Wunderground v.1.15,2013-04-06 01:48:00,
2013-04-05 21:54:00,34.9,22.0,30.13,NNE,22,0.0,-999.0,59,0.00,,,0.00,Wunderground v.1.15,2013-04-06 01:54:00,
2013-04-05 21:59:00,34.7,22.2,30.13,NNE,22,0.0,-999.0,60,0.00,,,0.00,Wunderground v.1.15,2013-04-06 01:59:00,
2013-04-05 22:05:00,34.5,22.0,30.14,NNE,22,0.0,-999.0,60,0.00,,,0.00,Wunderground v.1.15,2013-04-06 02:05:00,
2013-04-05 22:10:00,34.3,22.2,30.14,NNE,22,0.0,-999.0,61,0.00,,,0.00,Wunderground v.1.15,2013-04-06 02:10:00,
2013-04-05 22:15:00,34.0,22.0,30.15,NNE,22,0.0,-999.0,61,0.00,,,0.00,Wunderground v.1.15,2013-04-06 02:15:00,
2013-04-05 22:21:00,33.8,22.1,30.15,NNE,22,0.0,-999.0,62,0.00,,,0.00,Wunderground v.1.15,2013-04-06 02:21:00,
2013-04-05 22:27:00,33.5,22.2,30.15,NNE,22,0.0,-999.0,63,0.00,,,0.00,Wunderground v.1.15,2013-04-06 02:27:00,
2013-04-05 22:32:00,33.3,22.1,30.15,NNE,22,0.0,-999.0,63,0.00,,,0.00,Wunderground v.1.15,2013-04-06 02:32:00,
2013-04-05 22:37:00,32.9,22.0,30.15,NNE,22,0.0,-999.0,64,0.00,,,0.00,Wunderground v.1.15,2013-04-06 02:37:00,
2013-04-05 22:42:00,32.7,21.9,30.15,NNE,22,0.0,-999.0,64,0.00,,,0.00,Wunderground v.1.15,2013-04-06 02:42:00,
2013-04-05 22:47:00,32.4,21.9,30.15,NNE,22,0.0,-999.0,65,0.00,,,0.00,Wunderground v.1.15,2013-04-06 02:47:00,
2013-04-05 22:53:00,32.3,22.2,30.15,NNE,22,0.0,-999.0,66,0.00,,,0.00,Wunderground v.1.15,2013-04-06 02:53:00,
2013-04-05 22:59:00,32.2,22.5,30.15,NNE,22,0.0,-999.0,67,0.00,,,0.00,Wunderground v.1.15,2013-04-06 02:59:00,
2013-04-05 23:05:00,32.3,22.9,30.16,NNE,22,0.0,-999.0,68,0.00,,,0.00,Wunderground v.1.15,2013-04-06 03:05:00,
2013-04-05 23:10:00,32.4,23.0,30.16,NNE,22,0.0,-999.0,68,0.00,,,0.00,Wunderground v.1.15,2013-04-06 03:10:00,
2013-04-05 23:15:00,32.5,23.1,30.16,NNE,22,0.0,-999.0,68,0.00,,,0.00,Wunderground v.1.15,2013-04-06 03:15:00,
2013-04-05 23:21:00,32.4,23.0,30.16,NNE,22,0.0,-999.0,68,0.00,,,0.00,Wunderground v.1.15,2013-04-06 03:21:00,
2013-04-05 23:26:00,32.3,22.9,30.16,NNE,22,0.0,-999.0,68,0.00,,,0.00,Wunderground v.1.15,2013-04-06 03:26:00,
2013-04-05 23:31:00,32.1,23.1,30.16,NNE,22,0.0,-999.0,69,0.00,,,0.00,Wunderground v.1.15,2013-04-06 03:31:00,
2013-04-05 23:36:00,32.1,23.1,30.16,NNE,22,0.0,-999.0,69,0.00,,,0.00,Wunderground v.1.15,2013-04-06 03:36:00,
2013-04-05 23:41:00,32.1,23.1,30.16,NNE,22,0.0,-999.0,69,0.00,,,0.00,Wunderground v.1.15,2013-04-06 03:41:00,
2013-04-05 23:47:00,32.0,23.0,30.16,NNE,22,0.0,-999.0,69,0.00,,,0.00,Wunderground v.1.15,2013-04-06 03:47:00,
2013-04-05 23:52:00,32.0,23.7,30.17,NNE,22,0.0,-999.0,71,0.00,,,0.00,Wunderground v.1.15,2013-04-06 03:52:00,
2013-04-05 23:58:00,31.8,23.5,30.17,NNE,22,0.0,-999.0,71,0.00,,,0.00,Wunderground v.1.15,2013-04-06 03:58:00,